Time;durP1;ratioP1;P1;durP2;ratioP2;P2;SDS_P1;SDS_P2;PMS_P1;PMS_P2;Temp;Humidity;BMP_temperature;BMP_pressure;BME280_temperature;BME280_humidity;BME280_pressure;Samples;Min_cycle;Max_cycle;Signal;HPM_P1;HPM_P2
2024/02/02 00:02:14;;;;;;;10.35;5.72;;;4.00;99.90;;;;;;5045179;28;20048;-83
2024/02/02 00:04:56;;;;;;;10.02;5.72;;;3.90;99.90;;;;;;5043545;28;20036;-82
2024/02/02 00:07:29;;;;;;;13.23;7.20;;;3.80;99.90;;;;;;5041541;28;20026;-81
2024/02/02 00:09:58;;;;;;;18.42;7.00;;;3.70;99.90;;;;;;5043143;28;20087;-83
2024/02/02 00:12:35;;;;;;;13.77;7.50;;;3.70;99.90;;;;;;5038617;28;20163;-83
2024/02/02 00:15:05;;;;;;;13.95;7.40;;;3.60;99.90;;;;;;5040545;28;20131;-81
2024/02/02 00:17:32;;;;;;;13.60;7.30;;;3.60;99.90;;;;;;5031163;28;20079;-83
2024/02/02 00:19:59;;;;;;;13.90;7.43;;;2.30;99.90;;;;;;5038553;28;20494;-82
2024/02/02 00:22:26;;;;;;;13.27;7.78;;;3.60;99.90;;;;;;5056649;28;20056;-82
2024/02/02 00:24:52;;;;;;;16.30;9.32;;;4.30;99.90;;;;;;5039505;28;20029;-81
2024/02/02 00:27:19;;;;;;;13.95;7.63;;;3.60;99.90;;;;;;5055564;28;20033;-83
2024/02/02 00:30:02;;;;;;;12.93;7.60;;;3.60;99.90;;;;;;5106035;27;20417;-78
2024/02/02 00:32:30;;;;;;;16.25;7.95;;;3.60;99.90;;;;;;5083646;28;20074;-79
2024/02/02 00:35:00;;;;;;;13.50;7.68;;;3.60;99.90;;;;;;5089175;28;20067;-82
2024/02/02 00:37:28;;;;;;;14.57;8.27;;;3.60;99.90;;;;;;5084257;28;20016;-84
2024/02/02 00:40:05;;;;;;;85.78;39.70;;;3.60;99.90;;;;;;5090206;28;20095;-85
2024/02/02 00:42:32;;;;;;;15.07;7.07;;;3.60;99.90;;;;;;5104472;28;20024;-86
2024/02/02 00:44:59;;;;;;;17.20;7.00;;;3.60;99.90;;;;;;5101507;28;20044;-86
2024/02/02 00:47:25;;;;;;;17.85;8.73;;;3.70;99.90;;;;;;5103465;28;20031;-84
2024/02/02 00:49:51;;;;;;;17.95;7.82;;;3.50;99.90;;;;;;5113254;28;20020;-85
2024/02/02 00:52:17;;;;;;;16.55;8.38;;;3.40;99.90;;;;;;5103245;28;20028;-85
2024/02/02 00:54:43;;;;;;;19.33;7.88;;;3.40;99.90;;;;;;5095632;28;20119;-85
2024/02/02 00:57:09;;;;;;;17.00;8.00;;;3.40;99.90;;;;;;5084032;28;20101;-83
2024/02/02 00:59:34;;;;;;;17.30;9.60;;;3.50;99.90;;;;;;5100577;28;20047;-85
2024/02/02 01:02:00;;;;;;;14.68;8.27;;;4.30;99.90;;;;;;5094770;28;20032;-84
2024/02/02 01:04:26;;;;;;;18.77;8.30;;;3.40;99.90;;;;;;5095134;28;20024;-82
2024/02/02 01:06:51;;;;;;;13.63;7.63;;;3.90;99.90;;;;;;5094313;28;20028;-79
2024/02/02 01:09:17;;;;;;;17.98;9.25;;;3.70;99.90;;;;;;5081361;28;20111;-82
2024/02/02 01:11:43;;;;;;;14.85;8.05;;;4.00;99.90;;;;;;5083666;28;20082;-79
2024/02/02 01:14:08;;;;;;;13.98;7.85;;;3.50;99.90;;;;;;5082860;28;20035;-82
2024/02/02 01:16:34;;;;;;;16.70;8.02;;;3.60;99.90;;;;;;5085856;28;20177;-84
2024/02/02 01:19:00;;;;;;;16.73;7.90;;;3.60;99.90;;;;;;5083227;28;20035;-82
2024/02/02 01:21:26;;;;;;;12.63;6.78;;;3.60;99.90;;;;;;5081890;28;20111;-81
2024/02/02 01:23:51;;;;;;;16.80;7.25;;;3.60;99.90;;;;;;5080908;28;20369;-82
2024/02/02 01:26:17;;;;;;;15.57;7.03;;;4.40;99.90;;;;;;5079054;28;20092;-82
2024/02/02 01:28:42;;;;;;;16.00;7.65;;;3.50;99.90;;;;;;5080649;28;20477;-83
2024/02/02 01:31:08;;;;;;;13.00;6.95;;;3.50;99.90;;;;;;5078666;28;20032;-85
2024/02/02 01:33:34;;;;;;;14.90;7.43;;;3.40;99.90;;;;;;5082853;28;20182;-85
2024/02/02 01:35:59;;;;;;;13.48;7.38;;;3.50;99.90;;;;;;5082967;28;20506;-82
2024/02/02 01:38:25;;;;;;;15.95;7.35;;;3.40;99.90;;;;;;5081655;28;20032;-79
2024/02/02 01:40:51;;;;;;;18.02;7.20;;;3.40;99.90;;;;;;5066413;28;20064;-84
2024/02/02 01:43:17;;;;;;;17.60;7.70;;;3.40;99.90;;;;;;5066294;28;20431;-80
2024/02/02 01:45:42;;;;;;;14.05;8.07;;;4.00;99.90;;;;;;5066135;28;20032;-83
2024/02/02 01:48:11;;;;;;;16.75;9.20;;;5.10;99.90;;;;;;5058300;28;20036;-85
2024/02/02 01:50:37;;;;;;;15.10;8.38;;;3.20;99.90;;;;;;5065849;28;20484;-82
2024/02/02 01:53:02;;;;;;;21.83;9.63;;;3.30;99.90;;;;;;5066407;28;20028;-81
2024/02/02 01:55:28;;;;;;;14.73;8.10;;;3.30;99.90;;;;;;5068402;28;20029;-79
2024/02/02 01:57:54;;;;;;;17.10;9.10;;;3.40;99.90;;;;;;5067861;28;20805;-82
2024/02/02 02:00:20;;;;;;;18.77;9.15;;;3.40;99.90;;;;;;5056267;28;20039;-82
2024/02/02 02:02:46;;;;;;;20.50;9.95;;;3.40;99.90;;;;;;5064173;28;20033;-80
2024/02/02 02:05:12;;;;;;;17.90;9.50;;;3.70;99.90;;;;;;5065310;28;20027;-80
2024/02/02 02:07:42;;;;;;;15.32;8.95;;;3.50;99.90;;;;;;5071237;28;20504;-82
2024/02/02 02:10:09;;;;;;;14.20;7.78;;;3.50;99.90;;;;;;5068295;28;20024;-84
2024/02/02 02:12:34;;;;;;;14.52;8.48;;;3.60;99.90;;;;;;5067328;28;20033;-79
2024/02/02 02:15:00;;;;;;;14.50;8.13;;;3.50;99.90;;;;;;5071544;28;20362;-80
2024/02/02 02:17:26;;;;;;;14.73;8.70;;;3.40;99.90;;;;;;5071120;28;20388;-80
2024/02/02 02:19:52;;;;;;;15.95;8.35;;;3.40;99.90;;;;;;5063645;28;20024;-80
2024/02/02 02:22:18;;;;;;;17.30;8.65;;;3.70;99.90;;;;;;5069419;28;20025;-81
2024/02/02 02:24:43;;;;;;;15.95;8.70;;;3.50;99.90;;;;;;5083206;28;20480;-80
2024/02/02 02:27:10;;;;;;;17.75;8.48;;;3.30;99.90;;;;;;5063963;28;20089;-82
2024/02/02 02:29:36;;;;;;;16.88;8.13;;;3.30;99.90;;;;;;5069222;28;20036;-79
2024/02/02 02:32:02;;;;;;;12.88;7.63;;;3.30;99.90;;;;;;5072359;28;20025;-85
2024/02/02 02:34:27;;;;;;;12.18;7.65;;;3.40;99.90;;;;;;5073766;28;20080;-82
2024/02/02 02:36:54;;;;;;;14.23;8.15;;;3.50;99.90;;;;;;5070839;28;20035;-83
2024/02/02 02:39:20;;;;;;;15.90;9.13;;;3.40;99.90;;;;;;5081969;28;20024;-79
2024/02/02 02:41:46;;;;;;;16.15;7.68;;;3.40;99.90;;;;;;5072623;28;20043;-80
2024/02/02 02:44:14;;;;;;;15.50;8.68;;;;;;;;;;5067670;28;20032;-80
2024/02/02 02:46:40;;;;;;;13.02;8.02;;;3.40;99.90;;;;;;5064280;28;20052;-84
2024/02/02 02:49:07;;;;;;;15.80;7.65;;;3.90;99.90;;;;;;5068670;28;20063;-81
2024/02/02 02:51:33;;;;;;;15.63;7.78;;;5.10;99.90;;;;;;5064861;28;20020;-81
2024/02/02 02:53:58;;;;;;;15.85;7.63;;;4.40;99.90;;;;;;5067679;28;20080;-82
2024/02/02 02:56:24;;;;;;;13.57;6.95;;;3.50;99.90;;;;;;5066058;28;20149;-81
2024/02/02 02:58:50;;;;;;;14.02;7.78;;;4.40;99.90;;;;;;5066231;28;20032;-83
2024/02/02 03:01:15;;;;;;;13.30;7.28;;;3.80;99.90;;;;;;5065469;28;20029;-80
2024/02/02 03:03:41;;;;;;;14.02;6.95;;;3.40;99.90;;;;;;5065873;28;20054;-81
2024/02/02 03:06:06;;;;;;;10.90;6.88;;;3.40;99.90;;;;;;5071252;28;20480;-82
2024/02/02 03:08:32;;;;;;;15.25;6.93;;;3.40;99.90;;;;;;5062510;28;20496;-82
2024/02/02 03:10:58;;;;;;;14.95;7.10;;;3.40;99.90;;;;;;5060547;28;20503;-83
2024/02/02 03:13:24;;;;;;;14.60;7.53;;;3.40;99.90;;;;;;5068981;28;20029;-82
2024/02/02 03:15:49;;;;;;;14.57;6.88;;;3.40;99.90;;;;;;5067232;28;20028;-82
2024/02/02 03:18:15;;;;;;;15.05;7.47;;;3.40;99.90;;;;;;5065554;28;20508;-82
2024/02/02 03:20:41;;;;;;;15.23;7.43;;;3.40;99.90;;;;;;5071034;28;20039;-81
2024/02/02 03:23:07;;;;;;;17.20;8.60;;;;;;;;;;5065654;28;20036;-81
2024/02/02 03:25:33;;;;;;;14.13;7.55;;;;;;;;;;5084267;28;20116;-80
2024/02/02 03:27:59;;;;;;;13.32;7.40;;;;;;;;;;5067907;28;20060;-80
2024/02/02 03:30:27;;;;;;;15.60;8.60;;;;;;;;;;5067233;28;20544;-80
2024/02/02 03:32:53;;;;;;;19.80;8.73;;;3.60;99.90;;;;;;5067023;28;20032;-82
2024/02/02 03:35:19;;;;;;;13.25;8.27;;;4.20;99.90;;;;;;5068485;28;20032;-83
2024/02/02 03:37:44;;;;;;;13.38;8.32;;;3.70;99.90;;;;;;5082730;28;20048;-81
2024/02/02 03:40:11;;;;;;;12.77;8.07;;;4.00;99.90;;;;;;5085284;28;20029;-83
2024/02/02 03:42:36;;;;;;;17.63;9.05;;;3.60;99.90;;;;;;5078463;28;20060;-82
2024/02/02 03:45:03;;;;;;;16.70;9.10;;;3.60;99.90;;;;;;5085687;28;20024;-82
2024/02/02 03:47:29;;;;;;;16.73;8.85;;;3.70;99.90;;;;;;5072087;28;20029;-82
2024/02/02 03:49:55;;;;;;;17.00;9.35;;;3.70;99.90;;;;;;5071252;28;20870;-82
2024/02/02 03:52:23;;;;;;;15.55;9.55;;;4.20;99.90;;;;;;5070500;28;20099;-79
2024/02/02 03:54:52;;;;;;;18.08;9.15;;;3.70;99.90;;;;;;5070648;28;20388;-83
2024/02/02 03:57:18;;;;;;;15.55;9.18;;;3.70;99.90;;;;;;5067204;28;20025;-82
2024/02/02 03:59:44;;;;;;;15.60;8.95;;;3.70;99.90;;;;;;5066436;28;20070;-82
2024/02/02 04:02:10;;;;;;;15.55;9.07;;;3.80;99.90;;;;;;5068956;28;20666;-78
2024/02/02 04:04:36;;;;;;;16.85;8.77;;;3.40;99.90;;;;;;5067922;28;20062;-81
2024/02/02 04:07:02;;;;;;;13.63;8.23;;;3.80;99.90;;;;;;5069298;28;20020;-79
2024/02/02 04:09:27;;;;;;;16.35;9.60;;;3.80;99.90;;;;;;5067606;28;20025;-80
2024/02/02 04:11:53;;;;;;;20.98;8.48;;;4.40;99.90;;;;;;5069039;28;20091;-79
2024/02/02 04:14:22;;;;;;;17.05;8.80;;;3.80;99.90;;;;;;5083306;28;20028;-81
2024/02/02 04:16:48;;;;;;;15.55;9.00;;;3.80;99.90;;;;;;5066136;28;20029;-79
2024/02/02 04:19:17;;;;;;;18.67;9.43;;;3.80;99.90;;;;;;5067969;28;20032;-79
2024/02/02 04:21:43;;;;;;;15.60;9.40;;;4.50;99.90;;;;;;5066640;28;20480;-77
2024/02/02 04:24:10;;;;;;;19.77;9.45;;;4.10;99.90;;;;;;5068795;28;20036;-82
2024/02/02 04:26:35;;;;;;;16.55;9.25;;;5.00;99.90;;;;;;5061601;28;20107;-79
2024/02/02 04:29:01;;;;;;;18.23;9.23;;;3.60;99.90;;;;;;5068467;28;20135;-79
2024/02/02 04:31:27;;;;;;;15.52;9.18;;;;;;;;;;5064948;28;20048;-78
2024/02/02 04:33:53;;;;;;;18.25;9.55;;;;;;;;;;5067470;28;20028;-78
2024/02/02 04:36:19;;;;;;;21.48;9.63;;;3.80;99.90;;;;;;5065123;28;20027;-80
2024/02/02 04:38:44;;;;;;;15.38;8.23;;;3.80;99.90;;;;;;5066156;28;20025;-79
2024/02/02 04:41:10;;;;;;;19.35;9.88;;;4.10;99.90;;;;;;5065865;28;20116;-80
2024/02/02 04:43:36;;;;;;;17.75;9.90;;;3.90;99.90;;;;;;5067779;28;20024;-82
2024/02/02 04:46:01;;;;;;;17.25;9.43;;;4.20;99.90;;;;;;5068515;28;21364;-80
2024/02/02 04:48:27;;;;;;;16.65;9.10;;;3.90;99.90;;;;;;5068959;28;20036;-81
2024/02/02 04:50:53;;;;;;;23.90;10.45;;;;;;;;;;5077661;22;20036;-82
2024/02/02 04:53:19;;;;;;;17.85;9.43;;;;;;;;;;5092985;28;20035;-85
2024/02/02 04:55:45;;;;;;;19.88;9.77;;;4.00;99.90;;;;;;5088616;28;20016;-84
2024/02/02 04:58:10;;;;;;;17.45;9.23;;;3.90;99.90;;;;;;5083742;28;20017;-86
2024/02/02 05:00:36;;;;;;;17.50;9.40;;;;;;;;;;5084461;28;20029;-85
2024/02/02 05:03:02;;;;;;;19.23;9.35;;;4.00;99.90;;;;;;5086260;28;20039;-88
2024/02/02 05:05:28;;;;;;;17.50;9.32;;;4.10;99.90;;;;;;5085708;28;20048;-85
2024/02/02 05:07:53;;;;;;;22.95;9.93;;;4.40;99.90;;;;;;5083338;28;20035;-85
2024/02/02 05:10:19;;;;;;;19.67;9.50;;;5.50;99.90;;;;;;5087538;28;20025;-88
2024/02/02 05:12:45;;;;;;;19.45;9.60;;;4.20;99.90;;;;;;5085609;28;20024;-87
2024/02/02 05:15:10;;;;;;;20.67;10.20;;;4.20;99.90;;;;;;5087005;28;20029;-87
2024/02/02 05:17:36;;;;;;;20.48;10.13;;;;;;;;;;5093442;28;20077;-85
2024/02/02 05:20:04;;;;;;;21.55;10.88;;;;;;;;;;5107421;28;20028;-83
2024/02/02 05:22:30;;;;;;;20.08;10.43;;;;;;;;;;5088196;28;20012;-84
2024/02/02 05:24:56;;;;;;;22.17;12.40;;;;;;;;;;5086216;28;20032;-85
2024/02/02 05:27:22;;;;;;;23.80;9.65;;;;;;;;;;5090570;28;20064;-84
2024/02/02 05:29:49;;;;;;;18.70;9.93;;;;;;;;;;5079175;28;20744;-85
2024/02/02 05:32:15;;;;;;;14.68;8.73;;;;;;;;;;5085408;28;20024;-84
2024/02/02 05:34:44;;;;;;;14.13;8.68;;;4.50;99.90;;;;;;5087060;28;20024;-86
2024/02/02 05:37:10;;;;;;;17.20;9.13;;;;;;;;;;5085047;28;20025;-84
2024/02/02 05:39:36;;;;;;;16.50;9.30;;;;;;;;;;5092107;28;20034;-86
2024/02/02 05:42:01;;;;;;;16.42;9.18;;;4.60;99.90;;;;;;5090227;28;20032;-87
2024/02/02 05:44:27;;;;;;;16.52;8.65;;;4.70;99.90;;;;;;5088707;28;20017;-86
2024/02/02 05:46:53;;;;;;;14.68;9.05;;;;;;;;;;5085966;28;20036;-84
2024/02/02 05:49:19;;;;;;;19.60;9.15;;;;;;;;;;5080852;28;20056;-88
2024/02/02 05:51:45;;;;;;;16.17;8.77;;;;;;;;;;5087217;28;20052;-86
2024/02/02 05:54:11;;;;;;;20.08;8.65;;;;;;;;;;5083378;28;20029;-88
2024/02/02 05:56:37;;;;;;;14.52;7.90;;;4.90;99.90;;;;;;5082335;28;20026;-86
2024/02/02 05:59:03;;;;;;;16.42;8.52;;;;;;;;;;5088729;28;20033;-83
2024/02/02 06:01:29;;;;;;;14.68;8.02;;;4.90;99.90;;;;;;5079905;28;20039;-83
2024/02/02 06:03:55;;;;;;;14.35;8.10;;;;;;;;;;5088727;28;20009;-87
2024/02/02 06:06:21;;;;;;;16.35;8.32;;;;;;;;;;5085527;28;20182;-83
2024/02/02 06:08:47;;;;;;;19.67;9.02;;;;;;;;;;5080810;28;20037;-87
2024/02/02 06:11:13;;;;;;;16.33;8.10;;;;;;;;;;5097912;28;20032;-85
2024/02/02 06:13:40;;;;;;;15.07;8.75;;;;;;;;;;5079478;28;20108;-89
2024/02/02 06:16:06;;;;;;;15.65;7.97;;;;;;;;;;5093496;28;20092;-84
2024/02/02 06:18:32;;;;;;;18.27;9.68;;;;;;;;;;5077538;28;20041;-84
2024/02/02 06:20:58;;;;;;;18.48;7.95;;;;;;;;;;5087410;28;20111;-82
2024/02/02 06:23:27;;;;;;;20.70;10.95;;;;;;;;;;5079665;28;20054;-84
2024/02/02 06:25:53;;;;;;;13.60;8.75;;;;;;;;;;5080073;28;20035;-84
2024/02/02 06:28:19;;;;;;;17.48;8.38;;;;;;;;;;5072203;28;20037;-84
2024/02/02 06:30:49;;;;;;;15.13;8.02;;;;;;;;;;5062810;28;20028;-83
2024/02/02 06:33:16;;;;;;;15.27;8.00;;;;;;;;;;5074422;28;20462;-85
2024/02/02 06:35:44;;;;;;;17.33;8.45;;;;;;;;;;5079505;28;20029;-82
2024/02/02 06:38:11;;;;;;;18.67;8.32;;;;;;;;;;5064590;28;20035;-85
2024/02/02 06:40:37;;;;;;;16.35;8.65;;;;;;;;;;5078935;28;20036;-85
2024/02/02 06:43:04;;;;;;;15.50;7.60;;;;;;;;;;5094090;28;20037;-85
2024/02/02 06:45:30;;;;;;;14.73;8.63;;;;;;;;;;5093529;28;20036;-83
2024/02/02 06:47:56;;;;;;;23.23;9.90;;;;;;;;;;5095922;28;20028;-84
2024/02/02 06:50:22;;;;;;;23.58;8.00;;;;;;;;;;5078032;28;20125;-89
2024/02/02 06:52:48;;;;;;;19.90;9.40;;;;;;;;;;5079892;28;20035;-83
2024/02/02 06:55:15;;;;;;;16.50;8.73;;;5.30;99.90;;;;;;5077583;28;20024;-84
2024/02/02 06:57:42;;;;;;;24.45;7.93;;;5.30;99.90;;;;;;5077795;28;20025;-83
2024/02/02 07:00:12;;;;;;;18.33;8.23;;;;;;;;;;5076763;28;20028;-83
2024/02/02 07:02:38;;;;;;;18.60;7.97;;;;;;;;;;5072405;28;20055;-84
2024/02/02 07:05:04;;;;;;;19.10;8.20;;;;;;;;;;5075391;28;20398;-85
2024/02/02 07:07:30;;;;;;;16.45;7.90;;;;;;;;;;5100586;28;20024;-87
2024/02/02 07:09:56;;;;;;;18.95;7.10;;;;;;;;;;5101981;28;20040;-84
2024/02/02 07:12:34;;;;;;;18.90;7.63;;;5.50;99.90;;;;;;5074288;28;20033;-86
2024/02/02 07:15:18;;;;;;;15.43;6.22;;;5.60;99.90;;;;;;5078032;28;20042;-87
2024/02/02 07:17:45;;;;;;;18.50;7.00;;;5.60;99.90;;;;;;5080114;28;20123;-84
2024/02/02 07:20:23;;;;;;;18.05;6.78;;;5.60;99.90;;;;;;5080852;28;20032;-83
2024/02/02 07:22:53;;;;;;;18.70;6.47;;;5.70;99.90;;;;;;5097620;28;20036;-83
2024/02/02 07:25:21;;;;;;;16.65;7.35;;;;;;;;;;5084652;28;20028;-85
2024/02/02 07:27:54;;;;;;;15.95;6.47;;;;;;;;;;5064292;28;20033;-84
2024/02/02 07:30:38;;;;;;;16.85;6.75;;;;;;;;;;5083099;28;20033;-90
2024/02/02 07:33:26;;;;;;;16.60;6.80;;;5.90;99.90;;;;;;5092899;28;20100;-87
2024/02/02 07:35:54;;;;;;;18.67;6.57;;;5.00;99.90;;;;;;5087782;28;20166;-89
2024/02/02 07:38:41;;;;;;;20.45;6.70;;;5.80;99.90;;;;;;5101586;28;20012;-91
2024/02/02 07:41:08;;;;;;;18.02;6.53;;;8.30;99.90;;;;;;5092082;28;20019;-89
2024/02/02 07:43:35;;;;;;;19.15;7.40;;;5.90;99.90;;;;;;5081358;28;20005;-90
2024/02/02 07:46:04;;;;;;;20.05;7.18;;;5.90;99.90;;;;;;5093536;28;20017;-86
2024/02/02 07:48:30;;;;;;;22.08;7.38;;;4.30;99.90;;;;;;5076275;28;20020;-85
2024/02/02 07:50:56;;;;;;;15.32;6.50;;;6.10;99.90;;;;;;5102448;28;20143;-90
2024/02/02 07:53:23;;;;;;;22.25;8.55;;;7.70;99.90;;;;;;5090363;28;20016;-88
2024/02/02 16:51:41;;;;;;;7.55;4.00;;;9.70;99.90;;;;;;5058544;23;20084;-91
2024/02/02 16:54:10;;;;;;;7.55;4.43;;;9.60;99.90;;;;;;5057524;28;20040;-89
2024/02/02 16:56:36;;;;;;;8.98;4.38;;;9.60;99.90;;;;;;5039975;28;20054;-89
2024/02/02 16:59:02;;;;;;;6.25;3.88;;;9.50;99.90;;;;;;5037441;28;20045;-88
2024/02/02 17:01:33;;;;;;;11.95;5.70;;;10.00;99.90;;;;;;5042795;28;20055;-86
2024/02/02 17:03:59;;;;;;;6.10;3.58;;;9.50;99.90;;;;;;5027603;28;20018;-90
2024/02/02 17:06:29;;;;;;;7.95;3.97;;;9.50;99.90;;;;;;5028761;28;20029;-91
2024/02/02 17:09:05;;;;;;;6.80;4.27;;;9.40;99.90;;;;;;5025309;28;20101;-89
2024/02/02 17:11:34;;;;;;;9.63;5.25;;;9.40;99.90;;;;;;5029166;28;20026;-88
2024/02/02 17:14:02;;;;;;;5.68;3.60;;;9.30;99.90;;;;;;5054341;28;20040;-89
2024/02/02 17:16:31;;;;;;;6.00;3.67;;;9.30;99.90;;;;;;5035266;28;20112;-90
2024/02/02 17:18:59;;;;;;;7.85;4.13;;;9.30;99.90;;;;;;5036050;28;20056;-89
2024/02/02 17:21:25;;;;;;;7.57;4.00;;;9.20;99.90;;;;;;5037798;28;20794;-88
2024/02/02 17:23:51;;;;;;;6.30;3.58;;;7.70;99.90;;;;;;5039118;28;20041;-89
2024/02/02 17:26:19;;;;;;;7.85;4.32;;;9.20;99.90;;;;;;5035896;28;20034;-87
2024/02/02 17:28:46;;;;;;;6.47;4.10;;;8.30;99.90;;;;;;5034161;28;20483;-87
2024/02/02 17:31:15;;;;;;;5.85;3.50;;;9.10;99.90;;;;;;5040774;28;20029;-87
2024/02/02 17:33:41;;;;;;;6.85;3.88;;;9.20;99.90;;;;;;5040107;28;20057;-87
2024/02/02 17:36:14;;;;;;;7.20;3.90;;;9.00;99.90;;;;;;5043008;28;20021;-87
2024/02/02 17:38:41;;;;;;;9.20;4.32;;;9.30;99.90;;;;;;5041034;28;20029;-88
2024/02/02 17:41:17;;;;;;;6.70;3.75;;;9.00;99.90;;;;;;5043767;28;20050;-86
2024/02/02 17:43:43;;;;;;;11.50;5.28;;;9.00;99.90;;;;;;5041457;28;20175;-89
2024/02/02 17:46:19;;;;;;;7.30;4.50;;;9.00;99.90;;;;;;5039847;28;20065;-88
2024/02/02 17:48:46;;;;;;;8.15;4.53;;;8.90;99.90;;;;;;5047894;28;20044;-87
2024/02/02 17:51:21;;;;;;;8.93;4.40;;;9.00;99.90;;;;;;5047476;28;20029;-89
2024/02/02 17:53:47;;;;;;;7.82;5.10;;;8.90;99.90;;;;;;5044372;28;20036;-89
2024/02/02 17:56:13;;;;;;;8.05;5.53;;;8.90;99.90;;;;;;5046124;28;20150;-87
2024/02/02 17:58:39;;;;;;;8.05;4.93;;;8.90;99.90;;;;;;5049742;28;20052;-89
2024/02/02 18:01:05;;;;;;;9.65;5.22;;;8.90;99.90;;;;;;5049338;28;20045;-88
2024/02/02 18:03:32;;;;;;;8.45;5.00;;;8.80;99.90;;;;;;5047796;28;20044;-90
2024/02/02 18:05:58;;;;;;;8.90;4.90;;;8.80;99.90;;;;;;5052037;28;20041;-86
2024/02/02 18:08:25;;;;;;;9.02;5.40;;;8.80;99.90;;;;;;5052834;28;20048;-87
2024/02/02 18:10:51;;;;;;;10.52;5.50;;;8.70;99.90;;;;;;5048305;28;20044;-88
2024/02/02 18:13:20;;;;;;;7.03;4.45;;;8.90;99.90;;;;;;5048072;28;20037;-86
2024/02/02 18:15:48;;;;;;;9.80;5.35;;;8.70;99.90;;;;;;5047750;28;20025;-89
2024/02/02 18:18:17;;;;;;;9.90;5.30;;;8.70;99.90;;;;;;5043953;28;20043;-87
2024/02/02 18:20:43;;;;;;;10.65;5.47;;;8.70;99.90;;;;;;5048764;28;20093;-88
2024/02/02 18:23:09;;;;;;;11.40;5.78;;;8.60;99.90;;;;;;5038251;28;20029;-87
2024/02/02 18:25:35;;;;;;;11.30;5.43;;;8.60;99.90;;;;;;5045845;28;20036;-86
2024/02/02 18:28:01;;;;;;;8.98;5.32;;;8.70;99.90;;;;;;5044766;28;20025;-89
2024/02/02 18:30:27;;;;;;;9.90;5.53;;;8.60;99.90;;;;;;5047541;28;20041;-87
2024/02/02 18:32:53;;;;;;;11.32;5.22;;;8.70;99.90;;;;;;5044258;28;20675;-88
2024/02/02 18:35:19;;;;;;;9.15;5.43;;;8.70;99.90;;;;;;5044620;28;20067;-85
2024/02/02 18:37:48;;;;;;;8.13;5.13;;;8.80;99.90;;;;;;5039989;28;20021;-84
2024/02/02 18:40:14;;;;;;;9.30;5.93;;;8.90;99.90;;;;;;5043383;28;20030;-85
2024/02/02 18:42:40;;;;;;;8.82;5.43;;;8.80;99.90;;;;;;5039686;28;20025;-86
2024/02/02 18:45:06;;;;;;;10.27;5.55;;;8.70;99.90;;;;;;5043466;28;20530;-86
2024/02/02 18:47:32;;;;;;;9.93;6.10;;;8.60;99.90;;;;;;5044029;28;20034;-85
2024/02/02 18:49:58;;;;;;;14.63;6.22;;;8.70;99.90;;;;;;5045293;28;20055;-87
2024/02/02 18:52:26;;;;;;;12.43;7.22;;;;;;;;;;5044407;28;20049;-85
2024/02/02 18:54:56;;;;;;;10.60;5.85;;;8.80;99.90;;;;;;5042802;28;20037;-86
2024/02/02 18:57:22;;;;;;;8.82;5.25;;;8.70;99.90;;;;;;5048409;28;20098;-87
2024/02/02 18:59:48;;;;;;;9.38;5.68;;;8.80;99.90;;;;;;5039436;28;20045;-85
2024/02/02 19:02:13;;;;;;;8.75;5.40;;;9.00;99.90;;;;;;5044135;28;20033;-87
2024/02/02 19:04:40;;;;;;;10.38;5.78;;;;;;;;;;5041158;28;20055;-88
2024/02/02 19:07:08;;;;;;;8.75;5.30;;;8.90;99.90;;;;;;5037333;28;20025;-86
2024/02/02 19:09:34;;;;;;;9.45;6.00;;;9.00;99.90;;;;;;5038244;28;20029;-84
2024/02/02 19:11:59;;;;;;;10.20;5.82;;;7.30;99.90;;;;;;5032859;28;20025;-88
2024/02/02 19:14:25;;;;;;;10.43;5.97;;;;;;;;;;5040933;28;20048;-84
2024/02/02 19:16:51;;;;;;;10.95;5.85;;;8.90;99.90;;;;;;5041255;28;20034;-83
2024/02/02 19:19:18;;;;;;;10.45;5.72;;;9.00;99.90;;;;;;5036292;28;20149;-87
2024/02/02 19:21:45;;;;;;;10.48;6.07;;;9.00;99.90;;;;;;5038743;28;20040;-87
2024/02/02 19:24:14;;;;;;;9.15;5.80;;;8.90;99.90;;;;;;5036193;28;20072;-86
2024/02/02 19:26:40;;;;;;;10.07;6.05;;;8.90;99.90;;;;;;5038486;28;20022;-87
2024/02/02 19:29:07;;;;;;;11.82;6.28;;;8.90;99.90;;;;;;5041009;28;20032;-88
2024/02/02 19:31:35;;;;;;;10.93;6.78;;;8.80;99.90;;;;;;5034937;28;20037;-85
2024/02/02 19:34:01;;;;;;;10.73;6.43;;;8.70;99.90;;;;;;5034324;28;20029;-85
2024/02/02 19:36:28;;;;;;;12.32;7.00;;;8.70;99.90;;;;;;5038551;28;20025;-85
2024/02/02 19:38:56;;;;;;;12.05;7.32;;;8.80;99.90;;;;;;5038785;28;20100;-87
2024/02/02 19:41:30;;;;;;;11.18;6.55;;;8.80;99.90;;;;;;5037757;28;20112;-88
2024/02/02 19:43:56;;;;;;;14.65;8.40;;;;;;;;;;5045754;28;20413;-87
2024/02/02 19:46:22;;;;;;;11.18;7.20;;;9.00;99.90;;;;;;5041358;28;20033;-85
2024/02/02 19:48:49;;;;;;;16.90;7.97;;;9.00;99.90;;;;;;5042511;28;20048;-84
2024/02/02 19:51:15;;;;;;;13.88;7.45;;;;;;;;;;5044069;28;21007;-84
2024/02/02 19:53:41;;;;;;;11.27;5.93;;;;;;;;;;5036564;28;20081;-85
2024/02/02 19:56:08;;;;;;;9.23;5.60;;;;;;;;;;5040743;28;20041;-85
2024/02/02 19:58:33;;;;;;;12.70;6.32;;;9.10;99.90;;;;;;5038927;28;20383;-87
2024/02/02 20:01:00;;;;;;;14.70;7.50;;;;;;;;;;5040295;28;20048;-86
2024/02/02 20:03:26;;;;;;;12.85;6.28;;;;;;;;;;5044156;28;20029;-87
2024/02/02 20:05:52;;;;;;;10.20;6.63;;;;;;;;;;5041829;28;20056;-85
2024/02/02 20:08:18;;;;;;;11.50;6.47;;;;;;;;;;5043849;28;20033;-88
2024/02/02 20:10:44;;;;;;;10.43;5.90;;;;;;;;;;5044619;28;20029;-90
2024/02/02 20:13:10;;;;;;;12.23;7.40;;;;;;;;;;5047610;28;20021;-87
2024/02/02 20:15:39;;;;;;;11.98;7.20;;;;;;;;;;5048715;28;20061;-86
2024/02/02 20:18:05;;;;;;;9.60;5.85;;;;;;;;;;5043259;28;20017;-86
2024/02/02 20:20:31;;;;;;;11.05;6.75;;;;;;;;;;5047640;28;20025;-87
2024/02/02 20:22:58;;;;;;;10.63;5.75;;;;;;;;;;5042469;28;20043;-88
2024/02/02 20:25:24;;;;;;;11.57;5.95;;;;;;;;;;5047093;28;20026;-83
2024/02/02 20:27:50;;;;;;;8.48;5.70;;;9.10;99.90;;;;;;5040710;28;20017;-84
2024/02/02 20:30:19;;;;;;;9.27;5.80;;;;;;;;;;5048471;28;20048;-86
2024/02/02 20:32:45;;;;;;;11.18;5.93;;;;;;;;;;5041297;28;20040;-87
2024/02/02 20:35:11;;;;;;;12.32;6.45;;;8.90;99.90;;;;;;5038908;28;20029;-85
2024/02/02 20:37:40;;;;;;;8.82;5.90;;;8.90;99.90;;;;;;5038886;28;20055;-88
2024/02/02 20:40:13;;;;;;;10.45;6.10;;;8.80;99.90;;;;;;5034801;28;20033;-86
2024/02/02 20:42:42;;;;;;;10.02;6.30;;;8.80;99.90;;;;;;5019943;28;20144;-89
2024/02/02 20:45:08;;;;;;;10.40;6.57;;;8.80;99.90;;;;;;5030214;28;20060;-89
2024/02/02 20:47:34;;;;;;;10.02;5.95;;;8.80;99.90;;;;;;5043302;28;20021;-84
2024/02/02 20:50:02;;;;;;;10.80;6.40;;;8.70;99.90;;;;;;5041910;28;20064;-88
2024/02/02 20:52:27;;;;;;;10.68;6.60;;;8.70;99.90;;;;;;5043792;28;20029;-86
2024/02/02 20:54:54;;;;;;;9.20;5.63;;;8.60;99.90;;;;;;5042124;28;20028;-86
2024/02/02 20:57:20;;;;;;;9.43;6.13;;;8.60;99.90;;;;;;5039677;28;20018;-89
2024/02/02 20:59:47;;;;;;;9.27;5.75;;;8.60;99.90;;;;;;5038921;28;20030;-87
2024/02/02 21:02:12;;;;;;;9.90;5.82;;;8.60;99.90;;;;;;5035536;28;20034;-85
2024/02/02 21:04:38;;;;;;;9.48;5.53;;;8.70;99.90;;;;;;5041000;28;20025;-87
2024/02/02 21:07:08;;;;;;;8.07;5.50;;;7.00;99.90;;;;;;5036009;28;20049;-87
2024/02/02 21:09:36;;;;;;;11.57;6.15;;;8.90;99.90;;;;;;5037637;28;20030;-87
2024/02/02 21:12:02;;;;;;;8.55;5.60;;;8.60;99.90;;;;;;5035723;28;20030;-89
2024/02/02 21:14:28;;;;;;;9.52;5.75;;;8.70;99.90;;;;;;5036673;28;20056;-88
2024/02/02 21:17:56;;;;;;;8.20;5.65;;;8.60;99.90;;;;;;5034441;28;20040;-88
2024/02/02 21:20:50;;;;;;;12.13;5.72;;;8.80;99.90;;;;;;5027597;28;20060;-84
2024/02/02 21:26:45;;;;;;;10.23;5.55;;;8.80;99.90;;;;;;5038793;28;20036;-81
2024/02/02 21:29:49;;;;;;;9.02;5.40;;;8.40;99.90;;;;;;5034153;28;20047;-86
2024/02/02 21:39:01;;;;;;;10.15;5.80;;;8.80;99.90;;;;;;5049303;28;20092;-88
2024/02/02 21:41:31;;;;;;;7.20;5.07;;;9.00;99.90;;;;;;5032782;28;20029;-88
2024/02/02 21:44:14;;;;;;;10.43;6.00;;;9.00;99.90;;;;;;5036436;28;20025;-89
2024/02/02 21:47:24;;;;;;;10.23;5.90;;;8.60;99.90;;;;;;5053545;28;20029;-88
2024/02/02 21:50:02;;;;;;;8.45;5.43;;;8.90;99.90;;;;;;5033847;28;20035;-90
2024/02/02 21:52:43;;;;;;;10.70;6.30;;;8.80;99.90;;;;;;5037072;28;20422;-88
2024/02/02 21:55:22;;;;;;;8.73;5.45;;;8.80;99.90;;;;;;5042541;28;20040;-86
2024/02/02 21:58:00;;;;;;;8.93;5.60;;;8.70;99.90;;;;;;5043392;28;20479;-87
2024/02/02 22:01:03;;;;;;;7.63;5.00;;;8.70;99.90;;;;;;5046126;28;20038;-87
2024/02/02 22:04:06;;;;;;;10.13;5.82;;;8.60;99.90;;;;;;5064097;28;20025;-89
2024/02/02 22:07:02;;;;;;;10.75;6.30;;;8.60;99.90;;;;;;5044447;28;20069;-84
2024/02/02 22:13:00;;;;;;;9.43;6.10;;;8.50;99.90;;;;;;5039569;28;20029;-87
2024/02/02 22:16:00;;;;;;;11.15;6.25;;;8.40;99.90;;;;;;4983220;28;20332;-89
2024/02/02 22:18:41;;;;;;;10.20;6.47;;;8.50;99.90;;;;;;5036752;28;20237;-90
2024/02/02 22:21:22;;;;;;;11.15;6.20;;;8.50;99.90;;;;;;5031224;28;20323;-88
2024/02/02 22:24:26;;;;;;;;;;;;;;;;;;;;;
2024/02/02 22:27:38;;;;;;;11.55;6.47;;;8.70;99.90;;;;;;5015760;28;20109;-89
2024/02/02 22:31:03;;;;;;;;;;;;;;;;;;;;;